Time;durP1;ratioP1;P1;durP2;ratioP2;P2;SDS_P1;SDS_P2;PMS_P1;PMS_P2;Temp;Humidity;BMP_temperature;BMP_pressure;BME280_temperature;BME280_humidity;BME280_pressure;Samples;Min_cycle;Max_cycle;Signal;HPM_P1;HPM_P2
2023/04/27 00:02:25;;;;;;;7.43;4.35;;;6.50;99.90;;;;;;4312964;28;10000197;-72
2023/04/27 00:04:50;;;;;;;7.38;3.90;;;6.50;99.90;;;;;;5006106;28;20022;-73
2023/04/27 00:07:16;;;;;;;8.68;4.25;;;6.50;99.90;;;;;;5005105;28;20022;-73
2023/04/27 00:09:42;;;;;;;13.05;5.75;;;6.40;99.90;;;;;;5004718;28;20046;-73
2023/04/27 00:12:07;;;;;;;9.18;5.88;;;6.30;99.90;;;;;;5000388;28;20120;-74
2023/04/27 00:14:33;;;;;;;9.23;5.82;;;6.20;99.90;;;;;;5002223;28;20082;-73
2023/04/27 00:16:58;;;;;;;9.32;6.50;;;6.10;99.90;;;;;;5002151;28;20057;-73
2023/04/27 00:19:24;;;;;;;12.00;6.70;;;6.00;99.90;;;;;;5006421;28;20034;-73
2023/04/27 00:21:50;;;;;;;9.90;6.60;;;5.90;99.90;;;;;;5002048;28;20121;-73
2023/04/27 00:24:15;;;;;;;9.07;6.45;;;5.80;99.90;;;;;;5008350;28;20037;-74
2023/04/27 00:26:41;;;;;;;9.38;5.90;;;5.80;99.90;;;;;;5010070;28;20041;-73
2023/04/27 00:29:07;;;;;;;9.70;6.30;;;5.80;99.90;;;;;;5008435;28;20056;-73
2023/04/27 00:31:32;;;;;;;9.80;6.28;;;5.80;99.90;;;;;;5005882;28;20033;-74
2023/04/27 00:33:58;;;;;;;12.65;6.53;;;5.70;99.90;;;;;;5002246;28;20033;-73
2023/04/27 00:36:23;;;;;;;10.43;6.82;;;5.70;99.90;;;;;;5010029;28;20084;-75
2023/04/27 00:38:49;;;;;;;10.15;6.57;;;5.70;99.90;;;;;;5006484;28;20490;-74
2023/04/27 00:41:15;;;;;;;11.05;6.60;;;5.70;99.90;;;;;;5011469;28;20041;-74
2023/04/27 00:43:45;;;;;;;10.82;6.53;;;5.60;99.90;;;;;;5008925;28;20478;-74
2023/04/27 00:46:12;;;;;;;9.80;6.25;;;5.60;99.90;;;;;;4992157;28;20483;-73
2023/04/27 00:48:40;;;;;;;10.27;6.60;;;5.60;99.90;;;;;;4994180;28;20026;-74
2023/04/27 00:51:05;;;;;;;8.50;6.20;;;5.60;99.90;;;;;;5001573;28;20026;-73
2023/04/27 00:53:31;;;;;;;8.60;5.90;;;5.60;99.90;;;;;;5011736;28;20390;-73
2023/04/27 00:55:57;;;;;;;10.10;6.45;;;5.60;99.90;;;;;;5006291;28;20072;-74
2023/04/27 00:58:23;;;;;;;9.43;6.53;;;5.60;99.90;;;;;;5010768;28;20038;-74
2023/04/27 01:00:49;;;;;;;10.15;6.63;;;5.60;99.90;;;;;;5004424;28;20037;-73
2023/04/27 01:03:16;;;;;;;11.25;7.20;;;5.60;99.90;;;;;;5004883;28;20029;-74
2023/04/27 01:05:42;;;;;;;11.82;7.20;;;5.50;99.90;;;;;;5005707;28;20501;-73
2023/04/27 01:08:08;;;;;;;12.90;7.25;;;5.60;99.90;;;;;;5006059;28;20367;-73
2023/04/27 01:10:34;;;;;;;12.68;7.45;;;5.50;99.90;;;;;;5004220;28;20065;-74
2023/04/27 01:13:00;;;;;;;9.38;7.13;;;5.50;99.90;;;;;;5003409;28;20034;-74
2023/04/27 01:15:25;;;;;;;11.18;7.38;;;5.50;99.90;;;;;;5005759;28;20470;-74
2023/04/27 01:18:01;;;;;;;12.32;6.93;;;5.50;99.90;;;;;;5010748;28;20061;-74
2023/04/27 01:20:29;;;;;;;10.52;6.82;;;5.50;99.90;;;;;;5006017;28;20204;-73
2023/04/27 01:22:56;;;;;;;10.23;6.55;;;5.50;99.90;;;;;;5005231;28;20489;-74
2023/04/27 01:25:21;;;;;;;9.68;5.97;;;5.50;99.90;;;;;;5003341;28;20066;-73
2023/04/27 01:27:47;;;;;;;8.68;4.78;;;5.50;99.90;;;;;;5003404;28;20034;-73
2023/04/27 01:30:14;;;;;;;7.47;4.85;;;5.50;99.90;;;;;;5005205;28;20041;-74
2023/04/27 01:32:40;;;;;;;10.23;5.75;;;5.50;99.90;;;;;;5008447;28;20375;-73
2023/04/27 01:35:06;;;;;;;9.43;5.32;;;5.40;99.90;;;;;;5008768;28;20030;-74
2023/04/27 01:37:32;;;;;;;7.65;5.15;;;5.50;99.90;;;;;;5003237;28;20026;-74
2023/04/27 01:39:57;;;;;;;7.00;4.88;;;5.50;99.90;;;;;;5005860;28;20149;-75
2023/04/27 01:42:23;;;;;;;10.35;5.13;;;5.50;99.90;;;;;;5006690;28;20375;-74
2023/04/27 01:44:48;;;;;;;7.47;5.00;;;5.50;99.90;;;;;;5002102;28;20030;-74
2023/04/27 01:47:16;;;;;;;9.07;5.60;;;5.60;99.90;;;;;;5005926;28;20048;-74
2023/04/27 01:49:41;;;;;;;9.13;4.88;;;5.60;99.90;;;;;;5009247;28;20060;-73
2023/04/27 01:52:07;;;;;;;10.70;5.95;;;5.60;99.90;;;;;;5003812;28;20064;-74
2023/04/27 01:54:33;;;;;;;9.35;5.65;;;5.70;99.90;;;;;;5003483;28;20510;-74
2023/04/27 01:56:58;;;;;;;9.93;5.93;;;5.60;99.90;;;;;;5009951;28;20026;-73
2023/04/27 01:59:24;;;;;;;7.78;5.47;;;5.60;99.90;;;;;;5007014;28;20056;-73
2023/04/27 02:01:49;;;;;;;6.55;5.43;;;5.50;99.90;;;;;;5004779;28;20031;-74
2023/04/27 02:04:15;;;;;;;8.55;5.70;;;5.50;99.90;;;;;;5003188;28;20390;-74
2023/04/27 02:06:40;;;;;;;7.82;5.30;;;5.40;99.90;;;;;;4997868;28;20121;-73
2023/04/27 02:09:06;;;;;;;10.80;6.20;;;5.30;99.90;;;;;;5003978;28;20500;-74
2023/04/27 02:11:32;;;;;;;10.02;6.00;;;5.30;99.90;;;;;;4994538;28;20585;-73
2023/04/27 02:13:57;;;;;;;10.02;6.45;;;5.30;99.90;;;;;;5004382;28;20124;-74
2023/04/27 02:16:41;;;;;;;11.30;6.43;;;5.20;99.90;;;;;;5005171;28;20034;-74
2023/04/27 02:19:07;;;;;;;13.43;7.40;;;5.30;99.90;;;;;;4999569;28;20084;-74
2023/04/27 02:21:33;;;;;;;13.27;7.35;;;5.40;99.90;;;;;;5006880;28;20026;-73
2023/04/27 02:23:58;;;;;;;12.30;6.68;;;5.50;99.90;;;;;;4998842;28;20065;-74
2023/04/27 02:26:28;;;;;;;13.55;6.78;;;5.60;99.90;;;;;;5000360;28;20037;-74
2023/04/27 02:28:55;;;;;;;12.13;6.57;;;5.60;99.90;;;;;;5006283;28;20409;-74
2023/04/27 02:31:21;;;;;;;10.15;6.13;;;5.70;99.90;;;;;;4998712;28;20406;-73
2023/04/27 02:33:46;;;;;;;16.30;7.07;;;5.70;99.90;;;;;;5007281;28;20025;-73
2023/04/27 02:36:12;;;;;;;13.45;6.68;;;5.70;99.90;;;;;;5003472;28;20045;-74
2023/04/27 02:38:38;;;;;;;9.23;6.70;;;5.80;99.90;;;;;;5003576;28;20053;-74
2023/04/27 02:41:03;;;;;;;13.75;7.63;;;5.80;99.90;;;;;;5002069;28;20025;-74
2023/04/27 02:43:29;;;;;;;15.05;7.32;;;5.80;99.90;;;;;;5002986;28;20030;-74
2023/04/27 02:45:54;;;;;;;12.70;7.25;;;5.80;99.90;;;;;;5001775;28;20038;-74
2023/04/27 02:48:20;;;;;;;15.75;7.10;;;5.80;99.90;;;;;;4993059;28;20073;-74
2023/04/27 02:50:45;;;;;;;11.05;6.95;;;5.90;99.90;;;;;;4991040;28;20053;-76
2023/04/27 02:53:11;;;;;;;13.80;6.82;;;5.90;99.90;;;;;;5008714;28;20033;-75
2023/04/27 02:55:38;;;;;;;11.60;7.30;;;5.90;99.90;;;;;;5009091;28;20449;-75
2023/04/27 02:58:03;;;;;;;13.98;7.15;;;5.90;99.90;;;;;;5000249;28;20100;-75
2023/04/27 03:00:29;;;;;;;15.82;7.25;;;5.90;99.90;;;;;;5006088;28;20422;-75
2023/04/27 03:02:55;;;;;;;12.73;7.95;;;5.90;99.90;;;;;;4998980;28;20057;-75
2023/04/27 03:05:21;;;;;;;14.65;7.72;;;5.90;99.90;;;;;;5008172;28;20064;-75
2023/04/27 03:07:46;;;;;;;15.23;7.45;;;5.90;99.90;;;;;;5009109;28;20549;-75
2023/04/27 03:10:12;;;;;;;15.63;7.32;;;5.80;99.90;;;;;;4996480;28;20038;-74
2023/04/27 03:12:37;;;;;;;14.18;7.43;;;5.80;99.90;;;;;;5003735;28;20038;-74
2023/04/27 03:15:03;;;;;;;14.57;7.45;;;5.80;99.90;;;;;;5008950;28;20026;-75
2023/04/27 03:17:29;;;;;;;11.55;7.47;;;5.80;99.90;;;;;;5003895;28;20072;-75
2023/04/27 03:19:55;;;;;;;12.43;7.15;;;5.80;99.90;;;;;;5009221;28;20080;-75
2023/04/27 03:22:21;;;;;;;14.55;7.57;;;5.80;99.90;;;;;;5008975;28;20075;-75
2023/04/27 03:24:46;;;;;;;13.15;7.40;;;5.80;99.90;;;;;;5007452;28;20489;-75
2023/04/27 03:27:12;;;;;;;12.35;6.28;;;5.80;99.90;;;;;;5000609;28;20058;-75
2023/04/27 03:29:37;;;;;;;12.95;6.88;;;5.70;99.90;;;;;;5010444;28;20084;-75
2023/04/27 03:32:03;;;;;;;12.82;6.95;;;5.70;99.90;;;;;;5011355;28;20048;-75
2023/04/27 03:34:29;;;;;;;11.82;6.90;;;5.70;99.90;;;;;;5007178;28;20084;-75
2023/04/27 03:36:55;;;;;;;11.18;6.95;;;5.60;99.90;;;;;;5012232;28;20029;-75
2023/04/27 03:39:21;;;;;;;9.82;6.82;;;5.50;99.90;;;;;;5009244;28;20032;-75
2023/04/27 03:41:47;;;;;;;13.95;7.50;;;5.50;99.90;;;;;;5011218;28;20038;-75
2023/04/27 03:44:12;;;;;;;11.65;7.50;;;5.50;99.90;;;;;;5007717;28;20425;-75
2023/04/27 03:46:38;;;;;;;10.93;7.50;;;5.50;99.90;;;;;;5005970;28;20045;-75
2023/04/27 03:49:03;;;;;;;16.52;7.50;;;5.40;99.90;;;;;;5005616;28;20027;-75
2023/04/27 03:51:33;;;;;;;13.57;7.40;;;5.40;99.90;;;;;;5010978;28;20064;-74
2023/04/27 03:53:59;;;;;;;14.98;7.68;;;5.40;99.90;;;;;;5011033;28;20084;-75
2023/04/27 03:56:24;;;;;;;11.07;7.40;;;5.40;99.90;;;;;;5002784;28;20034;-75
2023/04/27 03:58:50;;;;;;;14.02;7.65;;;5.30;99.90;;;;;;5000538;28;20026;-75
2023/04/27 04:01:17;;;;;;;11.82;7.25;;;5.30;99.90;;;;;;5004518;28;20434;-75
2023/04/27 04:03:43;;;;;;;12.90;7.60;;;5.20;99.90;;;;;;5007402;28;20034;-75
2023/04/27 04:06:09;;;;;;;12.90;7.95;;;5.20;99.90;;;;;;5011098;28;20030;-75
2023/04/27 04:08:35;;;;;;;12.35;7.80;;;5.20;99.90;;;;;;5007291;28;20042;-75
2023/04/27 04:11:01;;;;;;;13.93;8.27;;;5.20;99.90;;;;;;5005293;28;20601;-75
2023/04/27 04:13:26;;;;;;;13.63;7.85;;;5.20;99.90;;;;;;5006641;28;20030;-75
2023/04/27 04:16:06;;;;;;;14.38;7.50;;;5.20;99.90;;;;;;5010210;28;20120;-75
2023/04/27 04:18:32;;;;;;;13.80;8.10;;;5.20;99.90;;;;;;5006061;28;20088;-75
2023/04/27 04:20:58;;;;;;;14.15;7.85;;;5.20;99.90;;;;;;5004982;28;20084;-75
2023/04/27 04:23:24;;;;;;;14.60;7.85;;;5.10;99.90;;;;;;5006227;28;21797;-75
2023/04/27 04:25:50;;;;;;;13.15;7.47;;;5.10;99.90;;;;;;5003896;28;20033;-75
2023/04/27 04:28:16;;;;;;;10.88;7.35;;;5.20;99.90;;;;;;5006257;28;20087;-73
2023/04/27 04:30:42;;;;;;;12.52;7.85;;;5.10;99.90;;;;;;5004252;28;20334;-73
2023/04/27 04:33:08;;;;;;;13.52;7.75;;;5.10;99.90;;;;;;4997648;28;20487;-73
2023/04/27 04:35:37;;;;;;;11.43;7.10;;;5.10;99.90;;;;;;5011097;28;20030;-75
2023/04/27 04:38:02;;;;;;;11.43;7.15;;;5.00;99.90;;;;;;5005531;28;20033;-75
2023/04/27 04:40:28;;;;;;;11.38;7.63;;;5.10;99.90;;;;;;5005265;28;20386;-75
2023/04/27 04:42:54;;;;;;;13.07;7.38;;;5.10;99.90;;;;;;5000667;28;20109;-75
2023/04/27 04:45:20;;;;;;;12.18;7.15;;;5.10;99.90;;;;;;4991443;28;20054;-74
2023/04/27 04:47:46;;;;;;;13.95;7.78;;;5.10;99.90;;;;;;5000292;28;20027;-75
2023/04/27 04:50:12;;;;;;;12.35;7.90;;;5.10;99.90;;;;;;5009027;28;20700;-75
2023/04/27 04:52:37;;;;;;;14.70;8.10;;;5.10;99.90;;;;;;5007432;28;20034;-75
2023/04/27 04:55:03;;;;;;;15.05;8.00;;;5.10;99.90;;;;;;5009758;28;20033;-75
2023/04/27 04:57:30;;;;;;;13.35;7.47;;;;;;;;;;5005997;28;20061;-75
2023/04/27 04:59:56;;;;;;;12.38;7.32;;;5.20;99.90;;;;;;5007481;28;20496;-75
2023/04/27 05:02:21;;;;;;;13.55;7.82;;;5.30;99.90;;;;;;5005558;28;20140;-75
2023/04/27 05:04:47;;;;;;;15.13;7.72;;;5.30;99.90;;;;;;4999796;28;20477;-75
2023/04/27 05:07:13;;;;;;;16.17;7.78;;;5.40;99.90;;;;;;5004320;28;20042;-75
2023/04/27 05:09:39;;;;;;;12.13;7.20;;;5.40;99.90;;;;;;5003237;28;20489;-74
2023/04/27 05:12:05;;;;;;;17.60;8.30;;;5.50;99.90;;;;;;5008288;28;20037;-75
2023/04/27 05:14:31;;;;;;;14.65;7.63;;;5.60;99.90;;;;;;5004680;28;20062;-75
2023/04/27 05:16:57;;;;;;;14.40;7.88;;;5.60;99.90;;;;;;5006336;28;20061;-75
2023/04/27 05:19:24;;;;;;;16.17;7.70;;;5.70;99.90;;;;;;4994641;28;20030;-74
2023/04/27 05:21:49;;;;;;;16.80;7.80;;;5.80;99.90;;;;;;4992690;28;20026;-75
2023/04/27 05:24:16;;;;;;;11.98;7.57;;;5.80;99.90;;;;;;4998471;28;20030;-74
2023/04/27 05:26:42;;;;;;;11.70;7.57;;;5.90;99.90;;;;;;5002166;28;20029;-75
2023/04/27 05:29:08;;;;;;;16.13;8.23;;;5.90;99.90;;;;;;5009242;28;20034;-75
2023/04/27 05:31:33;;;;;;;14.98;7.78;;;5.90;99.90;;;;;;5004216;28;20036;-75
2023/04/27 05:33:59;;;;;;;14.38;8.00;;;6.00;99.90;;;;;;5008647;28;20120;-75
2023/04/27 05:36:25;;;;;;;14.68;8.55;;;;;;;;;;5007159;28;20030;-75
2023/04/27 05:38:51;;;;;;;12.73;7.90;;;;;;;;;;5007964;28;20389;-72
2023/04/27 05:41:17;;;;;;;13.35;8.40;;;6.10;99.90;;;;;;5004840;28;20029;-72
2023/04/27 05:43:43;;;;;;;17.15;8.52;;;6.10;99.90;;;;;;4999527;28;20084;-73
2023/04/27 05:46:13;;;;;;;16.58;8.63;;;6.20;99.90;;;;;;4996680;28;20442;-73
2023/04/27 05:48:38;;;;;;;15.23;8.43;;;6.30;99.90;;;;;;5009750;28;20045;-72
2023/04/27 05:51:04;;;;;;;15.90;8.52;;;6.40;99.90;;;;;;5004699;28;20026;-73
2023/04/27 05:53:31;;;;;;;14.15;8.40;;;6.40;99.90;;;;;;4991062;28;20050;-72
2023/04/27 05:55:58;;;;;;;15.88;8.85;;;6.40;99.90;;;;;;4994890;28;20034;-73
2023/04/27 05:58:23;;;;;;;14.27;8.65;;;6.50;99.90;;;;;;5005828;28;20430;-73
2023/04/27 06:00:49;;;;;;;15.02;8.82;;;6.40;99.90;;;;;;5005064;28;20084;-73
2023/04/27 06:03:15;;;;;;;15.98;9.13;;;6.50;99.90;;;;;;5003056;28;20635;-73
2023/04/27 06:05:41;;;;;;;20.40;9.27;;;6.50;99.90;;;;;;5002650;28;20026;-73
2023/04/27 06:08:06;;;;;;;17.70;8.95;;;6.50;99.90;;;;;;4999446;28;20099;-73
2023/04/27 06:10:32;;;;;;;20.38;9.75;;;6.50;99.90;;;;;;5000859;28;20036;-73
2023/04/27 06:12:57;;;;;;;16.48;9.32;;;6.60;99.90;;;;;;5006928;28;20140;-73
2023/04/27 06:15:23;;;;;;;18.77;9.38;;;6.60;99.90;;;;;;5006319;28;20122;-72
2023/04/27 06:17:48;;;;;;;14.07;9.40;;;6.60;99.90;;;;;;4993131;28;20038;-74
2023/04/27 06:20:14;;;;;;;16.80;9.57;;;6.50;99.90;;;;;;4996741;28;20109;-73
2023/04/27 06:22:40;;;;;;;14.35;9.60;;;6.50;99.90;;;;;;4996721;28;20072;-73
2023/04/27 06:25:06;;;;;;;17.23;10.05;;;6.50;99.90;;;;;;5001165;28;20406;-73
2023/04/27 06:27:33;;;;;;;18.73;10.00;;;6.50;99.90;;;;;;5005207;28;20375;-73
2023/04/27 06:29:59;;;;;;;18.45;10.65;;;6.60;99.90;;;;;;5004817;28;20393;-73
2023/04/27 06:32:25;;;;;;;19.30;10.73;;;6.70;99.90;;;;;;4999978;28;20028;-73
2023/04/27 06:34:50;;;;;;;17.77;9.88;;;6.80;99.90;;;;;;4998957;28;20030;-73
2023/04/27 06:37:16;;;;;;;17.80;10.02;;;6.90;99.90;;;;;;5005832;28;20121;-73
2023/04/27 06:39:45;;;;;;;20.92;10.43;;;7.00;99.90;;;;;;5005553;28;20432;-74
2023/04/27 06:42:11;;;;;;;20.67;11.00;;;7.10;99.90;;;;;;5007219;28;20116;-73
2023/04/27 06:44:37;;;;;;;16.45;10.65;;;7.20;99.90;;;;;;5004694;28;20101;-73
2023/04/27 06:47:02;;;;;;;16.92;11.18;;;7.40;99.90;;;;;;5008929;28;20043;-73
2023/04/27 06:49:28;;;;;;;22.15;11.43;;;7.50;99.90;;;;;;5004393;28;20529;-73
2023/04/27 06:51:54;;;;;;;21.02;10.98;;;7.50;99.90;;;;;;5003274;28;20018;-73
2023/04/27 06:54:20;;;;;;;21.63;10.65;;;7.50;99.90;;;;;;5005331;28;20389;-72
2023/04/27 06:56:45;;;;;;;17.55;10.45;;;7.50;99.90;;;;;;5001606;28;20017;-73
2023/04/27 06:59:11;;;;;;;21.25;11.20;;;7.50;99.90;;;;;;5001433;28;20061;-73
2023/04/27 07:01:37;;;;;;;21.95;11.52;;;7.50;99.90;;;;;;5000650;28;20492;-73
2023/04/27 07:04:03;;;;;;;19.52;11.05;;;7.40;99.90;;;;;;5001883;28;20047;-73
2023/04/27 07:06:30;;;;;;;18.58;10.50;;;7.40;99.90;;;;;;5004973;28;20435;-73
2023/04/27 07:08:55;;;;;;;18.48;10.90;;;7.50;99.90;;;;;;5002795;28;20419;-73
2023/04/27 07:11:21;;;;;;;21.23;11.10;;;7.60;99.90;;;;;;5001197;28;20112;-73
2023/04/27 07:13:47;;;;;;;20.52;10.80;;;7.60;99.90;;;;;;5005613;28;20029;-74
2023/04/27 07:16:12;;;;;;;23.73;11.13;;;7.70;99.90;;;;;;5007697;28;20038;-74
2023/04/27 07:18:38;;;;;;;19.75;11.27;;;7.70;99.90;;;;;;5006689;28;20021;-74
2023/04/27 07:21:03;;;;;;;22.05;10.77;;;7.90;99.90;;;;;;5011257;28;20068;-74
2023/04/27 07:23:29;;;;;;;20.05;11.13;;;8.00;99.90;;;;;;5006787;28;20026;-74
2023/04/27 07:25:55;;;;;;;26.33;11.07;;;8.00;99.90;;;;;;5005239;28;20026;-73
2023/04/27 07:28:20;;;;;;;18.75;10.65;;;8.00;99.90;;;;;;5009486;28;20041;-73
2023/04/27 07:30:46;;;;;;;18.20;10.10;;;8.00;99.90;;;;;;5010168;28;20042;-72
2023/04/27 07:33:12;;;;;;;17.88;10.90;;;8.00;99.90;;;;;;5009502;28;20026;-74
2023/04/27 07:35:38;;;;;;;18.52;9.82;;;8.00;99.90;;;;;;5008781;28;20334;-73
2023/04/27 07:38:04;;;;;;;25.23;10.70;;;8.00;99.90;;;;;;5009147;28;20390;-72
2023/04/27 07:40:31;;;;;;;15.18;9.95;;;8.10;99.90;;;;;;5004105;28;20022;-72
2023/04/27 07:42:57;;;;;;;17.90;10.23;;;8.10;99.90;;;;;;5008991;28;20060;-72
2023/04/27 07:45:30;;;;;;;21.00;9.25;;;8.10;99.90;;;;;;5007267;28;20065;-73
2023/04/27 07:47:57;;;;;;;16.70;9.18;;;8.10;99.90;;;;;;5003084;28;20030;-72
2023/04/27 07:50:24;;;;;;;24.35;10.35;;;8.20;99.90;;;;;;5005224;28;20045;-72
2023/04/27 07:52:50;;;;;;;17.20;9.88;;;8.20;99.90;;;;;;4996831;28;20088;-73
2023/04/27 07:55:15;;;;;;;20.73;10.70;;;8.30;99.90;;;;;;5007360;28;20060;-73
2023/04/27 07:57:41;;;;;;;19.33;9.30;;;8.50;99.90;;;;;;4999203;28;20054;-73
2023/04/27 08:00:09;;;;;;;15.25;9.40;;;8.60;99.90;;;;;;4999682;28;20031;-73
2023/04/27 08:02:35;;;;;;;21.45;9.88;;;8.70;99.90;;;;;;4999497;28;20495;-72
2023/04/27 08:05:01;;;;;;;18.25;9.52;;;9.00;99.90;;;;;;4992805;28;20550;-73
2023/04/27 08:07:27;;;;;;;21.52;10.00;;;9.10;99.90;;;;;;5002789;28;20058;-73
2023/04/27 08:09:53;;;;;;;18.98;9.73;;;9.30;99.90;;;;;;5001847;28;20030;-73
2023/04/27 08:12:18;;;;;;;15.88;9.18;;;9.40;99.90;;;;;;5002267;28;20030;-72
2023/04/27 08:14:46;;;;;;;18.77;9.10;;;9.50;99.90;;;;;;4999808;28;20042;-72
2023/04/27 08:17:11;;;;;;;13.60;8.73;;;9.60;99.90;;;;;;5007358;28;20452;-72
2023/04/27 08:19:37;;;;;;;24.70;9.32;;;9.80;99.90;;;;;;5005166;28;20026;-72
2023/04/27 08:22:03;;;;;;;16.77;8.73;;;9.90;99.90;;;;;;5011280;28;20030;-74
2023/04/27 08:24:28;;;;;;;15.90;8.95;;;9.90;99.90;;;;;;5009456;28;20049;-72
2023/04/27 08:26:54;;;;;;;11.52;8.13;;;10.10;99.90;;;;;;5006121;28;20029;-73
2023/04/27 08:29:20;;;;;;;17.00;7.40;;;10.10;99.90;;;;;;5006226;28;20345;-72
2023/04/27 08:31:46;;;;;;;15.95;9.30;;;10.10;99.90;;;;;;5000357;28;20453;-72
2023/04/27 08:34:11;;;;;;;14.68;8.05;;;10.10;99.90;;;;;;5001617;28;20588;-72
2023/04/27 08:36:37;;;;;;;20.02;8.45;;;10.20;99.90;;;;;;5008199;28;20118;-72
2023/04/27 08:39:06;;;;;;;13.95;8.35;;;10.30;99.90;;;;;;5010815;28;20026;-72
2023/04/27 08:41:32;;;;;;;17.42;8.52;;;10.30;99.90;;;;;;5006968;28;20169;-72
2023/04/27 08:43:58;;;;;;;14.90;8.45;;;10.50;99.90;;;;;;5006395;28;20034;-73
2023/04/27 08:46:27;;;;;;;15.35;8.75;;;10.50;99.90;;;;;;5008244;28;20525;-72
2023/04/27 08:48:53;;;;;;;12.13;8.45;;;10.50;99.90;;;;;;5008188;28;20500;-72
2023/04/27 08:51:20;;;;;;;15.77;8.07;;;10.50;99.90;;;;;;5003209;28;20096;-73
2023/04/27 08:53:51;;;;;;;14.38;8.27;;;10.50;99.90;;;;;;5001798;28;20506;-72
2023/04/27 08:56:18;;;;;;;17.30;8.82;;;10.60;99.90;;;;;;5004174;28;20168;-72
2023/04/27 08:58:44;;;;;;;16.00;8.65;;;10.60;99.90;;;;;;5004974;28;20029;-73
2023/04/27 09:01:10;;;;;;;16.38;9.15;;;10.70;99.90;;;;;;5000866;28;20065;-73
2023/04/27 09:03:37;;;;;;;17.08;9.30;;;10.80;99.90;;;;;;4997179;28;20025;-73
2023/04/27 09:06:03;;;;;;;12.82;8.00;;;;;;;;;;4999879;28;20033;-72
2023/04/27 09:08:40;;;;;;;14.80;8.45;;;;;;;;;;4999835;28;20041;-73
2023/04/27 09:11:06;;;;;;;13.75;7.85;;;;;;;;;;5005495;28;20272;-72
2023/04/27 09:13:36;;;;;;;13.85;8.27;;;;;;;;;;5002820;28;20026;-72
2023/04/27 09:16:02;;;;;;;11.38;7.55;;;;;;;;;;5000297;28;20367;-73
2023/04/27 09:18:28;;;;;;;10.82;7.55;;;;;;;;;;4999524;28;20377;-73
2023/04/27 09:20:54;;;;;;;10.00;7.10;;;11.70;99.90;;;;;;5003613;28;20049;-72
2023/04/27 09:23:37;;;;;;;16.65;8.27;;;11.60;99.90;;;;;;4990563;28;20278;-73
2023/04/27 09:26:10;;;;;;;12.32;7.55;;;11.60;99.90;;;;;;5005064;28;20050;-72
2023/04/27 09:28:40;;;;;;;12.35;7.68;;;11.50;99.90;;;;;;5008768;28;20053;-72
2023/04/27 09:31:08;;;;;;;12.00;6.97;;;11.50;99.90;;;;;;5007609;28;20113;-71
2023/04/27 09:33:35;;;;;;;10.27;6.60;;;11.60;99.70;;;;;;5002587;28;20034;-71
2023/04/27 09:36:10;;;;;;;10.68;5.97;;;;;;;;;;4997419;28;20379;-73
2023/04/27 09:38:35;;;;;;;10.25;6.00;;;12.30;94.70;;;;;;4998353;28;20036;-72
2023/04/27 09:41:02;;;;;;;8.48;5.88;;;;;;;;;;4994350;28;20026;-72
2023/04/27 09:43:29;;;;;;;12.00;5.85;;;12.60;93.50;;;;;;5000475;28;20049;-73
2023/04/27 09:45:56;;;;;;;9.13;5.38;;;12.80;91.20;;;;;;4993523;28;20060;-72
2023/04/27 09:48:23;;;;;;;11.23;7.35;;;13.00;87.10;;;;;;4992706;28;20038;-73
2023/04/27 09:50:50;;;;;;;12.65;7.28;;;13.20;90.70;;;;;;4989658;28;20030;-73
2023/04/27 09:53:24;;;;;;;12.70;7.47;;;13.30;91.00;;;;;;4989628;28;20069;-74
2023/04/27 09:55:53;;;;;;;16.20;8.57;;;13.30;91.90;;;;;;4991751;28;20112;-74
2023/04/27 09:58:35;;;;;;;12.93;8.13;;;13.20;91.70;;;;;;4994912;28;20539;-73
2023/04/27 10:01:29;;;;;;;12.80;8.65;;;13.10;92.10;;;;;;4999036;28;20512;-72
2023/04/27 10:04:40;;;;;;;13.30;8.23;;;13.20;91.90;;;;;;4994275;28;21759;-73
2023/04/27 10:07:16;;;;;;;13.88;8.45;;;13.10;90.10;;;;;;4983039;28;20038;-72
2023/04/27 10:09:46;;;;;;;15.07;9.43;;;12.80;90.20;;;;;;4994852;28;20405;-72
2023/04/27 10:12:22;;;;;;;13.65;9.05;;;12.50;89.60;;;;;;5000714;28;20108;-73
2023/04/27 10:14:55;;;;;;;17.02;9.35;;;12.40;91.30;;;;;;5002398;28;20269;-73
2023/04/27 10:17:51;;;;;;;16.50;9.45;;;12.40;91.20;;;;;;5003361;28;20026;-73
2023/04/27 10:20:31;;;;;;;14.40;9.15;;;12.50;89.90;;;;;;4994804;28;20459;-73
2023/04/27 10:22:58;;;;;;;15.65;8.65;;;12.60;89.90;;;;;;4993720;28;20029;-72
2023/04/27 10:25:29;;;;;;;13.63;8.60;;;12.80;87.90;;;;;;4994364;28;20077;-72
2023/04/27 10:28:00;;;;;;;14.63;8.82;;;13.00;88.00;;;;;;4991273;28;20041;-73
2023/04/27 10:30:34;;;;;;;15.13;8.65;;;13.20;85.30;;;;;;4999456;28;20018;-73
2023/04/27 10:33:04;;;;;;;13.70;8.23;;;13.20;88.90;;;;;;4994735;28;20411;-73
2023/04/27 10:35:39;;;;;;;13.40;8.00;;;13.30;90.10;;;;;;4994425;28;20404;-72
2023/04/27 10:38:29;;;;;;;14.90;9.35;;;13.40;87.90;;;;;;4996473;28;20030;-72
2023/04/27 10:40:57;;;;;;;13.43;8.40;;;13.50;84.80;;;;;;4990035;28;20062;-72
2023/04/27 10:43:27;;;;;;;12.88;8.65;;;13.50;85.30;;;;;;4998907;28;20034;-72
2023/04/27 10:45:54;;;;;;;14.38;9.30;;;13.60;85.20;;;;;;4995830;28;20053;-72
2023/04/27 10:48:20;;;;;;;14.00;8.55;;;13.70;83.60;;;;;;4998001;28;20081;-72
2023/04/27 10:50:46;;;;;;;11.55;8.02;;;13.70;82.60;;;;;;5003243;28;20145;-72
2023/04/27 10:53:13;;;;;;;14.10;8.63;;;13.70;90.10;;;;;;4996856;28;20030;-73
2023/04/27 10:55:39;;;;;;;15.77;9.00;;;13.60;87.20;;;;;;5003077;28;20609;-72
2023/04/27 10:58:04;;;;;;;13.20;8.95;;;13.30;88.90;;;;;;5002414;28;20030;-73
2023/04/27 11:00:32;;;;;;;14.23;9.23;;;13.30;87.20;;;;;;5007381;28;20038;-72
2023/04/27 11:03:19;;;;;;;15.70;9.23;;;13.40;89.30;;;;;;5003907;28;20036;-72
2023/04/27 11:05:46;;;;;;;15.80;9.20;;;13.50;86.50;;;;;;4995990;28;20355;-72
2023/04/27 11:08:17;;;;;;;17.77;9.82;;;13.70;90.50;;;;;;5000193;28;20534;-72
2023/04/27 11:10:48;;;;;;;17.92;10.38;;;13.80;90.80;;;;;;5007697;28;20386;-72
2023/04/27 11:13:14;;;;;;;16.38;10.27;;;;;;;;;;5004913;28;20088;-72
2023/04/27 11:15:48;;;;;;;12.70;9.23;;;13.20;86.60;;;;;;5005170;28;20105;-73
2023/04/27 11:18:15;;;;;;;14.25;9.48;;;12.90;86.40;;;;;;4998777;28;20545;-72
2023/04/27 11:20:41;;;;;;;15.23;9.30;;;12.70;87.00;;;;;;5001463;28;20030;-73
2023/04/27 11:23:09;;;;;;;14.45;9.20;;;12.60;87.10;;;;;;5005756;28;20638;-71
2023/04/27 11:25:38;;;;;;;15.77;9.52;;;12.90;89.70;;;;;;4996872;28;20030;-72
2023/04/27 11:28:05;;;;;;;15.63;9.98;;;13.20;89.00;;;;;;5001907;28;20022;-72
2023/04/27 11:30:30;;;;;;;17.38;10.23;;;13.40;85.20;;;;;;4999404;28;20160;-72
2023/04/27 11:32:56;;;;;;;15.73;9.70;;;13.60;85.80;;;;;;5001224;28;20502;-72
2023/04/27 11:35:32;;;;;;;13.48;9.60;;;13.80;84.40;;;;;;5002979;28;20112;-72
2023/04/27 11:37:58;;;;;;;12.88;9.55;;;14.10;83.90;;;;;;4992760;28;20026;-72
2023/04/27 11:40:26;;;;;;;13.80;9.70;;;14.20;81.30;;;;;;5000786;28;20255;-72
2023/04/27 11:42:58;;;;;;;12.60;8.50;;;14.30;80.00;;;;;;5005654;28;20386;-72
2023/04/27 11:45:26;;;;;;;15.98;8.85;;;14.50;81.30;;;;;;5004332;28;20649;-72
2023/04/27 11:47:52;;;;;;;14.77;8.65;;;14.60;81.20;;;;;;5003296;28;20449;-72
2023/04/27 11:50:18;;;;;;;15.55;9.02;;;14.60;84.20;;;;;;4997517;28;20033;-72
2023/04/27 11:52:49;;;;;;;17.35;9.65;;;14.10;82.20;;;;;;4994775;28;20394;-73
2023/04/27 11:55:14;;;;;;;15.15;9.63;;;13.80;80.90;;;;;;5000668;28;20078;-72
2023/04/27 11:57:41;;;;;;;12.05;8.93;;;13.60;84.60;;;;;;5007280;28;20457;-71
2023/04/27 12:00:11;;;;;;;13.95;9.07;;;13.50;85.20;;;;;;5003436;28;20112;-73
2023/04/27 12:02:37;;;;;;;17.63;10.00;;;13.40;85.30;;;;;;4996871;28;20039;-73
2023/04/27 12:05:03;;;;;;;15.95;9.50;;;13.20;87.00;;;;;;5006004;28;20025;-74
2023/04/27 12:07:29;;;;;;;15.77;10.02;;;13.30;85.90;;;;;;5003592;28;20033;-74
2023/04/27 12:09:55;;;;;;;11.43;8.70;;;13.50;84.90;;;;;;5004093;28;20049;-73
2023/04/27 12:12:22;;;;;;;16.08;9.13;;;13.60;87.50;;;;;;5007955;28;20567;-73
2023/04/27 12:14:48;;;;;;;15.27;9.38;;;13.60;86.00;;;;;;5003434;28;20042;-73
2023/04/27 12:17:14;;;;;;;17.80;8.95;;;13.60;82.90;;;;;;5004213;28;20476;-73
2023/04/27 12:19:39;;;;;;;15.25;8.77;;;13.70;85.80;;;;;;5003749;28;20025;-74
2023/04/27 12:22:05;;;;;;;12.52;8.60;;;13.60;84.20;;;;;;5001427;28;20083;-74
2023/04/27 12:24:31;;;;;;;12.70;8.30;;;13.40;82.20;;;;;;4993813;28;20478;-74
2023/04/27 12:26:57;;;;;;;16.15;9.63;;;13.20;83.10;;;;;;4989430;28;20496;-74
2023/04/27 12:29:23;;;;;;;13.10;8.82;;;13.20;85.60;;;;;;4994655;28;20088;-74
2023/04/27 12:31:49;;;;;;;12.02;8.63;;;;;;;;;;5001020;28;20066;-73
2023/04/27 12:34:15;;;;;;;13.65;8.45;;;13.60;85.50;;;;;;5006680;28;20034;-74
2023/04/27 12:36:41;;;;;;;10.75;8.23;;;14.00;83.70;;;;;;5002938;28;20109;-74
2023/04/27 12:39:20;;;;;;;13.30;8.40;;;14.30;82.50;;;;;;5005028;28;20490;-74
2023/04/27 12:41:49;;;;;;;15.07;7.18;;;14.60;78.90;;;;;;4995611;28;20035;-73
2023/04/27 12:44:16;;;;;;;11.55;7.25;;;14.70;78.10;;;;;;5001000;28;20122;-74
2023/04/27 12:46:43;;;;;;;11.05;7.65;;;15.00;75.50;;;;;;4997154;28;20596;-73
2023/04/27 12:49:09;;;;;;;13.32;7.53;;;15.20;76.60;;;;;;5002197;28;20482;-74